createdAt,value
2022-08-09T00:00:26.659Z,16.40
2022-08-09T00:04:08.568Z,16.30
2022-08-09T00:06:19.162Z,16.30
2022-08-09T00:08:57.083Z,16.20
2022-08-09T00:12:03.235Z,16.20
2022-08-09T00:14:30.613Z,16.18
2022-08-09T00:18:10.741Z,16.12
2022-08-09T00:20:03.551Z,16.10
2022-08-09T00:22:37.259Z,16.10
2022-08-09T00:25:14.422Z,16.12
2022-08-09T00:27:56.234Z,16.12
2022-08-09T00:30:29.057Z,16.18
2022-08-09T00:33:01.962Z,16.18
2022-08-09T00:35:42.943Z,16.20
2022-08-09T00:38:16.789Z,16.20
2022-08-09T00:40:55.332Z,16.10
2022-08-09T00:44:20.664Z,16.10
2022-08-09T00:46:55.379Z,16.10
2022-08-09T00:49:17.629Z,16.10
2022-08-09T00:51:56.068Z,16.06
2022-08-09T00:54:31.644Z,16.00
2022-08-09T00:57:10.606Z,16.00
2022-08-09T00:59:52.391Z,16.00
2022-08-09T01:02:31.547Z,15.92
2022-08-09T01:05:14.219Z,15.90
2022-08-09T01:08:00.893Z,15.90
2022-08-09T01:10:46.038Z,15.90
2022-08-09T01:13:41.794Z,15.80
2022-08-09T01:16:31.847Z,15.80
2022-08-09T01:19:17.122Z,15.80
2022-08-09T01:22:52.209Z,15.74
2022-08-09T01:25:48.988Z,15.70
2022-08-09T01:28:26.160Z,15.68
2022-08-09T01:31:02.353Z,15.60
2022-08-09T01:33:45.016Z,15.60
2022-08-09T01:36:24.336Z,15.50
2022-08-09T01:39:02.932Z,15.50
2022-08-09T01:41:56.101Z,15.50
2022-08-09T01:44:34.789Z,15.40
2022-08-09T01:47:11.799Z,15.40
2022-08-09T01:49:48.884Z,15.30
2022-08-09T01:52:24.572Z,15.30
2022-08-09T01:55:02.045Z,15.20
2022-08-09T01:57:45.760Z,15.20
2022-08-09T02:00:35.248Z,15.14
2022-08-09T02:03:11.360Z,15.10
2022-08-09T02:06:04.167Z,15.10
2022-08-09T02:08:58.962Z,15.10
2022-08-09T02:11:43.646Z,15.06
2022-08-09T02:14:25.495Z,15.00
2022-08-09T02:17:15.391Z,15.10
2022-08-09T02:19:54.247Z,15.10
2022-08-09T02:22:35.817Z,15.10
2022-08-09T02:25:17.160Z,15.20
2022-08-09T02:27:57.656Z,15.20
2022-08-09T02:30:36.259Z,15.30
2022-08-09T02:33:14.471Z,15.40
2022-08-09T02:36:03.015Z,15.58
2022-08-09T02:38:47.831Z,15.72
2022-08-09T02:41:30.077Z,15.80
2022-08-09T02:44:19.908Z,15.90
2022-08-09T02:47:06.205Z,15.92
2022-08-09T02:49:43.360Z,16.00
2022-08-09T02:52:19.621Z,15.94
2022-08-09T02:54:55.004Z,15.90
2022-08-09T02:57:31.546Z,15.90
2022-08-09T03:00:26.364Z,15.80
2022-08-09T03:03:01.781Z,15.70
2022-08-09T03:05:35.962Z,15.70
2022-08-09T03:08:14.337Z,15.60
2022-08-09T03:10:50.829Z,15.56
2022-08-09T03:13:26.698Z,15.50
2022-08-09T03:16:19.340Z,15.40
2022-08-09T03:18:53.415Z,15.40
2022-08-09T03:21:28.864Z,15.30
2022-08-09T03:24:10.976Z,15.30
2022-08-09T03:26:53.466Z,15.30
2022-08-09T03:29:27.041Z,15.34
2022-08-09T03:32:11.204Z,15.40
2022-08-09T03:34:44.271Z,15.40
2022-08-09T03:37:55.177Z,15.42
2022-08-09T03:40:18.101Z,15.48
2022-08-09T03:42:51.143Z,15.50
2022-08-09T03:46:04.164Z,15.50
2022-08-09T03:48:18.849Z,15.50
2022-08-09T03:51:05.442Z,15.50
2022-08-09T03:53:59.686Z,15.50
2022-08-09T03:56:32.897Z,15.50
2022-08-09T03:59:07.183Z,15.50
2022-08-09T04:01:43.177Z,15.50
2022-08-09T04:04:19.663Z,15.50
2022-08-09T04:06:52.789Z,15.50
2022-08-09T04:09:41.916Z,15.50
2022-08-09T04:12:45.158Z,15.50
2022-08-09T04:15:39.124Z,15.50
2022-08-09T04:18:16.495Z,15.40
2022-08-09T04:20:52.991Z,15.48
2022-08-09T04:23:26.043Z,15.50
2022-08-09T04:25:59.007Z,15.50
2022-08-09T04:28:34.471Z,15.58
2022-08-09T04:31:13.053Z,15.60
2022-08-09T04:33:47.211Z,15.70
2022-08-09T04:36:29.955Z,15.80
2022-08-09T04:39:08.726Z,15.80
2022-08-09T04:41:43.824Z,15.90
2022-08-09T04:44:17.869Z,15.90
2022-08-09T04:46:59.486Z,15.92
2022-08-09T04:49:53.791Z,16.00
2022-08-09T04:52:30.380Z,16.04
2022-08-09T04:55:07.824Z,16.10
2022-08-09T04:57:54.277Z,16.20
2022-08-09T05:00:36.084Z,16.30
2022-08-09T05:03:40.301Z,16.40
2022-08-09T05:06:06.875Z,16.50
2022-08-09T05:08:47.674Z,16.60
2022-08-09T05:11:20.947Z,16.70
2022-08-09T05:13:54.960Z,16.80
2022-08-09T05:16:31.783Z,16.86
2022-08-09T05:19:05.118Z,16.92
2022-08-09T05:21:47.218Z,17.00
2022-08-09T05:24:25.517Z,17.18
2022-08-09T05:26:58.733Z,17.22
2022-08-09T05:29:35.666Z,17.30
2022-08-09T05:32:10.255Z,17.40
2022-08-09T05:34:45.751Z,17.54
2022-08-09T05:37:19.259Z,17.68
2022-08-09T05:39:52.741Z,17.76
2022-08-09T05:42:33.405Z,17.88
2022-08-09T05:45:05.894Z,18.00
2022-08-09T05:47:40.813Z,18.10
2022-08-09T05:50:51.323Z,18.20
2022-08-09T05:53:31.770Z,18.30
2022-08-09T05:56:07.168Z,18.40
2022-08-09T05:58:40.499Z,18.52
2022-08-09T06:01:15.801Z,18.60
2022-08-09T06:03:58.429Z,18.70
2022-08-09T06:06:31.972Z,18.90
2022-08-09T06:09:23.291Z,18.90
2022-08-09T06:11:58.516Z,18.90
2022-08-09T06:14:31.497Z,19.00
2022-08-09T06:17:09.096Z,19.12
2022-08-09T06:19:42.544Z,19.30
2022-08-09T06:22:16.813Z,19.40
2022-08-09T06:24:49.828Z,19.40
2022-08-09T06:27:26.171Z,19.54
2022-08-09T06:30:17.805Z,19.70
2022-08-09T06:33:13.772Z,19.70
2022-08-09T06:35:56.917Z,19.80
2022-08-09T06:38:32.201Z,20.00
2022-08-09T06:41:19.065Z,20.10
2022-08-09T06:43:53.215Z,20.30
2022-08-09T06:46:39.500Z,20.40
2022-08-09T06:49:15.993Z,20.50
2022-08-09T06:51:55.758Z,20.60
2022-08-09T06:54:29.191Z,20.70
2022-08-09T06:57:02.096Z,20.82
2022-08-09T07:00:54.582Z,21.00
2022-08-09T07:02:31.168Z,21.10
2022-08-09T07:37:06.486Z,22.98
2022-08-09T07:39:48.966Z,23.20
2022-08-09T07:42:29.391Z,23.20
2022-08-09T07:45:14.902Z,23.20
2022-08-09T07:48:01.508Z,23.30
2022-08-09T07:50:40.861Z,23.30
2022-08-09T07:53:36.530Z,23.40
2022-08-09T07:56:26.841Z,23.40
2022-08-09T07:59:00.700Z,23.50
2022-08-09T08:01:34.782Z,23.50
2022-08-09T08:04:12.613Z,23.60
2022-08-09T08:06:56.282Z,23.70
2022-08-09T08:09:35.563Z,23.76
2022-08-09T08:12:36.468Z,23.80
2022-08-09T08:15:13.877Z,23.80
2022-08-09T08:17:53.152Z,23.90
2022-08-09T08:20:33.005Z,23.90
2022-08-09T08:23:17.329Z,23.94
2022-08-09T08:25:54.187Z,24.10
2022-08-09T08:28:39.839Z,24.30
2022-08-09T08:31:15.227Z,24.40
2022-08-09T08:33:52.878Z,24.56
2022-08-09T08:36:29.532Z,24.70
2022-08-09T08:39:03.871Z,24.80
2022-08-09T08:41:50.544Z,24.90
2022-08-09T08:44:29.042Z,25.10
2022-08-09T08:47:12.091Z,25.30
2022-08-09T08:49:49.346Z,25.50
2022-08-09T08:52:57.889Z,25.78
2022-08-09T08:55:23.348Z,26.00
2022-08-09T08:57:58.509Z,26.20
2022-08-09T09:00:34.358Z,26.40
2022-08-09T09:03:16.333Z,26.50
2022-08-09T09:06:04.853Z,26.50
2022-08-09T09:08:42.496Z,26.50
2022-08-09T09:11:19.813Z,26.60
2022-08-09T09:13:58.607Z,26.80
2022-08-09T09:16:36.117Z,26.90
2022-08-09T09:22:11.834Z,27.40
2022-08-09T09:24:50.190Z,27.64
2022-08-09T09:28:05.478Z,27.86
2022-08-09T09:33:17.882Z,28.12
2022-08-09T09:36:01.454Z,28.20
2022-08-09T09:38:48.029Z,28.34
2022-08-09T09:41:49.082Z,28.50
2022-08-09T09:44:31.542Z,28.86
2022-08-09T09:47:13.615Z,29.10
2022-08-09T09:50:13.701Z,29.40
2022-08-09T09:52:57.054Z,29.64
2022-08-09T09:55:32.872Z,29.80
2022-08-09T09:58:17.268Z,30.20
2022-08-09T10:00:58.757Z,30.62
2022-08-09T10:03:57.930Z,31.20
2022-08-09T10:06:43.032Z,32.10
2022-08-09T10:09:22.171Z,33.00
2022-08-09T10:12:14.495Z,33.96
2022-08-09T10:15:06.691Z,34.94
2022-08-09T10:17:56.652Z,35.16
2022-08-09T10:20:35.649Z,35.40
2022-08-09T10:23:23.832Z,35.10
2022-08-09T10:26:07.541Z,35.08
2022-08-09T10:28:49.044Z,35.30
2022-08-09T10:32:37.495Z,35.76
2022-08-09T10:34:36.019Z,36.34
2022-08-09T10:37:09.776Z,36.70
2022-08-09T10:39:49.707Z,36.92
2022-08-09T10:42:27.047Z,36.46
2022-08-09T10:45:10.664Z,36.10
2022-08-09T10:48:26.074Z,36.40
2022-08-09T10:51:13.660Z,37.04
2022-08-09T10:54:06.300Z,37.30
2022-08-09T10:56:46.267Z,37.72
2022-08-09T10:59:43.131Z,38.20
2022-08-09T11:03:15.494Z,38.70
2022-08-09T11:05:35.537Z,39.28
2022-08-09T11:08:47.920Z,39.30
2022-08-09T11:11:25.086Z,39.60
2022-08-09T11:14:32.386Z,39.90
2022-08-09T11:17:26.755Z,40.00
2022-08-09T11:20:10.362Z,40.34
2022-08-09T11:23:09.977Z,40.70
2022-08-09T11:25:49.394Z,40.92
2022-08-09T11:28:56.432Z,41.00
2022-08-09T11:31:53.118Z,40.80
2022-08-09T11:34:51.603Z,41.00
2022-08-09T11:37:41.438Z,41.50
2022-08-09T11:40:18.772Z,41.50
2022-08-09T11:42:53.999Z,41.60
2022-08-09T11:45:42.260Z,41.80
2022-08-09T11:48:28.323Z,41.80
2022-08-09T11:53:00.573Z,41.84
2022-08-09T11:54:27.632Z,42.20
2022-08-09T11:57:47.443Z,42.60
2022-08-09T12:00:31.794Z,42.84
2022-08-09T12:03:31.803Z,42.94
2022-08-09T12:06:00.343Z,42.96
2022-08-09T12:08:33.599Z,43.06
2022-08-09T12:11:12.833Z,41.98
2022-08-09T12:14:07.672Z,42.10
2022-08-09T12:16:47.037Z,42.10
2022-08-09T12:19:32.457Z,42.66
2022-08-09T12:22:08.584Z,43.24
2022-08-09T12:24:43.091Z,43.58
2022-08-09T12:29:13.891Z,43.40
2022-08-09T12:30:36.534Z,43.72
2022-08-09T12:33:10.296Z,44.00
2022-08-09T12:35:44.272Z,43.84
2022-08-09T12:38:38.102Z,43.80
2022-08-09T12:41:11.955Z,43.78
2022-08-09T12:44:06.355Z,44.00
2022-08-09T12:46:41.122Z,44.38
2022-08-09T12:49:14.614Z,44.50
2022-08-09T12:52:02.320Z,44.44
2022-08-09T12:55:03.079Z,44.30
2022-08-09T12:57:48.125Z,44.80
2022-08-09T13:00:25.500Z,45.14
2022-08-09T13:03:02.287Z,45.42
2022-08-09T13:05:51.599Z,45.70
2022-08-09T13:08:58.460Z,46.04
2022-08-09T13:11:39.397Z,45.68
2022-08-09T13:14:41.026Z,45.02
2022-08-09T13:17:44.289Z,44.40
2022-08-09T13:20:23.279Z,44.38
2022-08-09T13:23:00.928Z,44.58
2022-08-09T13:25:53.331Z,44.58
2022-08-09T13:28:34.588Z,45.10
2022-08-09T13:32:17.562Z,44.90
2022-08-09T13:34:06.070Z,44.62
2022-08-09T13:36:43.322Z,42.92
2022-08-09T13:41:19.498Z,40.88
2022-08-09T13:42:13.157Z,38.46
2022-08-09T13:44:48.590Z,36.50
2022-08-09T13:47:33.614Z,34.82
2022-08-09T13:50:30.388Z,33.76
2022-08-09T13:53:04.364Z,32.96
2022-08-09T13:55:41.589Z,32.34
2022-08-09T13:58:17.813Z,31.74
2022-08-09T14:00:52.955Z,31.20
2022-08-09T14:04:05.297Z,30.64
2022-08-09T14:06:25.730Z,30.10
2022-08-09T14:08:59.983Z,29.74
2022-08-09T14:11:32.766Z,29.34
2022-08-09T14:14:26.245Z,29.10
2022-08-09T14:17:01.673Z,28.90
2022-08-09T14:19:34.642Z,28.78
2022-08-09T14:22:09.085Z,28.60
2022-08-09T14:24:53.319Z,28.60
2022-08-09T14:27:26.625Z,28.66
2022-08-09T14:30:34.667Z,28.70
2022-08-09T14:32:52.885Z,29.00
2022-08-09T14:35:26.458Z,29.48
2022-08-09T14:38:19.203Z,31.72
2022-08-09T14:41:01.322Z,33.10
2022-08-09T14:43:53.221Z,33.00
2022-08-09T14:46:58.876Z,32.38
2022-08-09T14:49:23.756Z,31.90
2022-08-09T14:51:58.843Z,31.56
2022-08-09T14:54:34.029Z,31.20
2022-08-09T14:57:10.117Z,30.64
2022-08-09T14:59:46.762Z,30.48
2022-08-09T15:02:21.413Z,30.20
2022-08-09T15:04:54.403Z,29.90
2022-08-09T15:07:27.491Z,29.60
2022-08-09T15:10:11.005Z,29.40
2022-08-09T15:12:47.148Z,29.32
2022-08-09T15:15:21.081Z,29.20
2022-08-09T15:17:54.391Z,29.20
2022-08-09T15:22:00.573Z,29.20
2022-08-09T15:24:03.642Z,29.42
2022-08-09T15:26:18.394Z,29.80
2022-08-09T15:28:55.063Z,31.06
2022-08-09T15:31:41.337Z,32.88
2022-08-09T15:34:32.703Z,34.36
2022-08-09T15:37:36.971Z,35.36
2022-08-09T15:40:15.333Z,35.90
2022-08-09T15:42:54.327Z,36.40
2022-08-09T15:45:29.296Z,36.78
2022-08-09T15:48:07.589Z,37.34
2022-08-09T15:50:49.406Z,38.02
2022-08-09T15:54:05.098Z,38.44
2022-08-09T15:56:29.374Z,38.50
2022-08-09T15:59:04.554Z,38.54
2022-08-09T16:01:39.436Z,38.62
2022-08-09T16:04:13.673Z,38.70
2022-08-09T16:06:50.574Z,38.90
2022-08-09T16:09:51.127Z,38.70
2022-08-09T16:12:16.242Z,38.70
2022-08-09T16:14:49.050Z,38.80
2022-08-09T16:17:24.195Z,38.70
2022-08-09T16:20:04.652Z,38.50
2022-08-09T16:22:42.456Z,38.50
2022-08-09T16:25:30.608Z,38.50
2022-08-09T16:28:13.646Z,38.32
2022-08-09T16:30:58.946Z,38.40
2022-08-09T16:33:34.918Z,38.20
2022-08-09T16:36:15.962Z,38.00
2022-08-09T16:38:53.463Z,37.46
2022-08-09T16:42:02.689Z,36.16
2022-08-09T16:44:20.041Z,34.58
2022-08-09T16:47:01.812Z,33.32
2022-08-09T16:50:31.278Z,32.26
2022-08-09T16:52:30.421Z,31.22
2022-08-09T16:55:04.254Z,30.46
2022-08-09T16:58:09.843Z,29.80
2022-08-09T17:00:34.893Z,29.30
2022-08-09T17:03:20.968Z,29.00
2022-08-09T17:06:07.688Z,28.42
2022-08-09T17:09:00.271Z,27.90
2022-08-09T17:11:41.531Z,27.50
2022-08-09T17:14:26.165Z,27.24
2022-08-09T17:17:12.793Z,26.96
2022-08-09T17:20:28.517Z,26.72
2022-08-09T17:22:53.059Z,26.50
2022-08-09T17:25:26.204Z,26.30
2022-08-09T17:28:08.405Z,26.06
2022-08-09T17:30:47.809Z,25.80
2022-08-09T17:33:22.697Z,25.66
2022-08-09T17:35:56.485Z,25.50
2022-08-09T17:38:32.437Z,25.30
2022-08-09T17:41:10.349Z,25.10
2022-08-09T17:43:50.592Z,24.98
2022-08-09T17:46:37.854Z,24.80
2022-08-09T17:49:11.352Z,24.70
2022-08-09T17:51:52.080Z,24.50
2022-08-09T17:54:28.203Z,24.40
2022-08-09T17:57:02.662Z,24.24
2022-08-09T17:59:38.456Z,24.10
2022-08-09T18:02:19.725Z,23.96
2022-08-09T18:04:55.734Z,23.80
2022-08-09T18:07:30.297Z,23.70
2022-08-09T18:10:09.143Z,23.56
2022-08-09T18:13:38.909Z,23.40
2022-08-09T18:16:05.409Z,23.30
2022-08-09T18:18:32.925Z,23.20
2022-08-09T18:21:23.050Z,23.00
2022-08-09T18:24:10.591Z,22.90
2022-08-09T18:26:46.972Z,22.80
2022-08-09T18:30:41.164Z,22.70
2022-08-09T18:32:14.886Z,22.60
2022-08-09T18:34:52.174Z,22.52
2022-08-09T18:37:47.340Z,22.50
2022-08-09T18:40:18.512Z,22.40
2022-08-09T18:43:00.087Z,22.30
2022-08-09T18:46:47.436Z,22.20
2022-08-09T18:48:30.383Z,22.10
2022-08-09T18:51:06.791Z,22.00
2022-08-09T18:54:00.585Z,21.90
2022-08-09T18:56:32.988Z,21.80
2022-08-09T18:59:06.049Z,21.70
2022-08-09T19:01:45.865Z,21.60
2022-08-09T19:04:24.820Z,21.50
2022-08-09T19:07:08.733Z,21.40
2022-08-09T19:10:14.074Z,21.30
2022-08-09T19:12:38.200Z,21.20
2022-08-09T19:15:14.082Z,21.10
2022-08-09T19:17:54.402Z,21.10
2022-08-09T19:20:34.100Z,21.10
2022-08-09T19:23:16.890Z,21.00
2022-08-09T19:26:08.857Z,21.06
2022-08-09T19:28:48.670Z,21.10
2022-08-09T19:31:23.693Z,21.10
2022-08-09T19:33:59.144Z,21.10
2022-08-09T19:36:32.881Z,21.10
2022-08-09T19:39:06.329Z,21.00
2022-08-09T19:41:42.347Z,20.90
2022-08-09T19:44:15.289Z,20.84
2022-08-09T19:46:53.497Z,20.80
2022-08-09T19:50:08.110Z,20.70
2022-08-09T19:52:20.504Z,20.78
2022-08-09T19:54:53.697Z,20.80
2022-08-09T19:57:26.543Z,20.80
2022-08-09T20:00:06.592Z,20.80
2022-08-09T20:04:10.846Z,20.80
2022-08-09T20:05:46.409Z,20.84
2022-08-09T20:08:24.990Z,20.80
2022-08-09T20:11:08.767Z,20.80
2022-08-09T20:13:42.214Z,20.80
2022-08-09T20:16:35.317Z,20.70
2022-08-09T20:19:49.082Z,20.70
2022-08-09T20:22:08.970Z,20.62
2022-08-09T20:24:43.115Z,20.60
2022-08-09T20:27:29.217Z,20.52
2022-08-09T20:30:02.753Z,20.50
2022-08-09T20:32:38.006Z,20.40
2022-08-09T20:35:13.325Z,20.30
2022-08-09T20:38:22.201Z,20.30
2022-08-09T20:40:42.483Z,20.20
2022-08-09T20:43:25.267Z,20.10
2022-08-09T20:46:15.502Z,20.10
2022-08-09T20:48:51.477Z,20.10
2022-08-09T20:51:28.261Z,20.08
2022-08-09T20:54:01.348Z,20.04
2022-08-09T20:56:36.713Z,20.00
2022-08-09T20:59:09.861Z,20.00
2022-08-09T21:01:50.812Z,20.00
2022-08-09T21:05:56.755Z,19.96
2022-08-09T21:07:19.355Z,19.90
2022-08-09T21:09:58.629Z,19.84
2022-08-09T21:12:33.315Z,19.80
2022-08-09T21:15:12.700Z,19.70
2022-08-09T21:18:25.165Z,19.62
2022-08-09T21:20:40.142Z,19.52
2022-08-09T21:23:15.682Z,19.40
2022-08-09T21:25:59.299Z,19.30
2022-08-09T21:28:36.392Z,19.20
2022-08-09T21:31:17.669Z,19.00
2022-08-09T21:33:56.910Z,18.90
2022-08-09T21:36:32.195Z,18.80
2022-08-09T21:39:06.235Z,18.70
2022-08-09T21:42:04.147Z,18.60
2022-08-09T21:44:35.183Z,18.50
2022-08-09T21:47:11.235Z,18.46
2022-08-09T21:49:51.032Z,18.40
2022-08-09T21:52:25.640Z,18.36
2022-08-09T21:55:04.390Z,18.30
2022-08-09T21:57:59.260Z,18.20
2022-08-09T22:00:36.109Z,18.20
2022-08-09T22:03:19.131Z,18.10
2022-08-09T22:05:58.777Z,18.10
2022-08-09T22:08:32.580Z,18.00
2022-08-09T22:12:05.770Z,18.00
2022-08-09T22:13:59.442Z,17.92
2022-08-09T22:16:37.091Z,17.90
2022-08-09T22:19:23.797Z,17.90
2022-08-09T22:22:03.181Z,17.90
2022-08-09T22:24:37.995Z,17.90
2022-08-09T22:27:31.105Z,17.90
2022-08-09T22:30:12.170Z,18.00
2022-08-09T22:32:48.016Z,18.10
2022-08-09T22:36:01.460Z,18.10
2022-08-09T22:38:16.510Z,18.10
2022-08-09T22:40:57.370Z,18.10
2022-08-09T22:44:03.504Z,18.10
2022-08-09T22:48:10.519Z,18.10
2022-08-09T22:49:17.135Z,18.10
2022-08-09T22:51:57.142Z,18.10
2022-08-09T22:54:31.294Z,18.10
2022-08-09T22:57:04.961Z,18.00
2022-08-09T22:59:58.413Z,18.00
2022-08-09T23:02:30.816Z,17.84
2022-08-09T23:05:05.965Z,17.78
2022-08-09T23:08:21.998Z,17.60
2022-08-09T23:10:49.306Z,17.50
2022-08-09T23:13:22.073Z,17.40
2022-08-09T23:16:02.968Z,17.30
2022-08-09T23:18:36.281Z,17.20
2022-08-09T23:21:09.982Z,17.20
2022-08-09T23:23:43.439Z,17.10
2022-08-09T23:26:36.905Z,17.10
2022-08-09T23:29:14.168Z,17.00
2022-08-09T23:31:50.203Z,17.00
2022-08-09T23:34:26.584Z,16.98
2022-08-09T23:36:59.947Z,16.90
2022-08-09T23:39:33.120Z,16.90
2022-08-09T23:42:06.300Z,16.90
2022-08-09T23:44:39.288Z,16.90
2022-08-09T23:47:12.085Z,16.90
2022-08-09T23:49:45.086Z,16.80
2022-08-09T23:52:18.492Z,16.80
2022-08-09T23:54:56.176Z,16.70
2022-08-09T23:57:29.241Z,16.70
